Time;durP1;ratioP1;P1;durP2;ratioP2;P2;SDS_P1;SDS_P2;PMS_P1;PMS_P2;Temp;Humidity;BMP_temperature;BMP_pressure;BME280_temperature;BME280_humidity;BME280_pressure;Samples;Min_cycle;Max_cycle;Signal;HPM_P1;HPM_P2
2023/09/15 00:00:46;;;;;;;20.30;12.67;;;;;;;;;;5088633;28;20470;-77
2023/09/15 00:03:15;;;;;;;22.47;14.60;;;;;;;;;;5077505;28;20470;-77
2023/09/15 00:05:42;;;;;;;22.97;15.93;;;;;;;;;;5076775;28;20954;-77
2023/09/15 00:08:10;;;;;;;19.93;14.33;;;;;;;;;;5076737;28;20460;-76
2023/09/15 00:10:40;;;;;;;19.17;15.47;;;;;;;;;;5077320;28;20471;-76
2023/09/15 00:13:07;;;;;;;23.60;15.10;;;;;;;;;;5077175;28;20487;-77
2023/09/15 00:15:35;;;;;;;19.73;14.20;;;;;;;;;;5077095;28;20451;-77
2023/09/15 00:18:03;;;;;;;25.80;16.07;;;;;;;;;;5078391;28;20474;-77
2023/09/15 00:20:31;;;;;;;17.40;14.77;;;;;;;;;;5083514;28;20501;-77
2023/09/15 00:22:58;;;;;;;21.20;15.60;;;;;;;;;;5085351;28;20826;-76
2023/09/15 00:25:27;;;;;;;21.10;15.50;;;;;;;;;;5077076;28;20468;-76
2023/09/15 00:27:55;;;;;;;17.97;15.17;;;;;;;;;;5084716;28;20561;-77
2023/09/15 00:30:22;;;;;;;19.43;15.37;;;;;;;;;;5076316;28;20550;-76
2023/09/15 00:32:50;;;;;;;21.07;14.33;;;;;;;;;;5076635;28;20499;-77
2023/09/15 00:35:20;;;;;;;23.33;16.90;;;;;;;;;;5076403;28;20456;-77
2023/09/15 00:37:49;;;;;;;21.50;15.07;;;;;;;;;;5076233;28;20471;-77
2023/09/15 00:40:16;;;;;;;29.33;17.70;;;;;;;;;;5075888;28;20886;-77
2023/09/15 00:42:44;;;;;;;24.63;16.70;;;;;;;;;;5076886;28;20444;-77
2023/09/15 00:45:14;;;;;;;22.63;17.20;;;;;;;;;;5094556;28;20451;-77
2023/09/15 00:47:43;;;;;;;22.80;17.47;;;;;;;;;;5096701;28;20486;-77
2023/09/15 00:50:13;;;;;;;25.30;18.40;;;;;;;;;;5076665;28;21002;-77
2023/09/15 00:52:42;;;;;;;21.90;16.70;;;;;;;;;;5076142;28;20480;-77
2023/09/15 00:55:10;;;;;;;21.27;16.43;;;;;;;;;;5078319;28;20466;-77
2023/09/15 00:57:38;;;;;;;19.60;15.80;;;;;;;;;;5081309;28;20454;-77
2023/09/15 01:00:11;;;;;;;23.33;15.97;;;;;;;;;;5077643;28;20503;-77
2023/09/15 01:02:38;;;;;;;21.77;16.90;;;;;;;;;;5081466;28;20447;-76
2023/09/15 01:05:06;;;;;;;21.27;16.50;;;;;;;;;;5075668;28;20455;-77
2023/09/15 01:07:33;;;;;;;23.47;17.17;;;;;;;;;;5081656;28;20485;-77
2023/09/15 01:10:03;;;;;;;26.07;17.60;;;;;;;;;;5078451;28;20475;-77
2023/09/15 01:12:31;;;;;;;22.00;16.93;;;;;;;;;;5090536;28;20495;-76
2023/09/15 01:14:58;;;;;;;27.93;17.67;;;;;;;;;;5084003;28;20538;-77
2023/09/15 01:17:29;;;;;;;22.87;18.30;;;;;;;;;;5079763;28;20461;-77
2023/09/15 01:20:06;;;;;;;26.20;19.47;;;;;;;;;;5087189;28;20983;-76
2023/09/15 01:22:46;;;;;;;26.93;18.93;;;;;;;;;;5090209;28;20501;-77
2023/09/15 01:25:31;;;;;;;26.20;20.03;;;;;;;;;;5078318;28;20458;-77
2023/09/15 01:28:09;;;;;;;24.80;18.07;;;;;;;;;;5087048;28;20603;-77
2023/09/15 01:30:38;;;;;;;26.77;19.17;;;;;;;;;;5075170;28;20452;-77
2023/09/15 01:33:09;;;;;;;26.60;17.13;;;;;;;;;;5093702;28;20491;-77
2023/09/15 01:35:36;;;;;;;27.73;17.87;;;;;;;;;;5081168;28;20459;-77
2023/09/15 01:38:03;;;;;;;25.80;18.47;;;;;;;;;;5085318;28;20824;-77
2023/09/15 01:40:31;;;;;;;24.80;17.37;;;;;;;;;;5081915;28;20477;-77
2023/09/15 01:42:58;;;;;;;25.83;20.10;;;;;;;;;;5092444;28;20458;-77
2023/09/15 01:45:25;;;;;;;29.90;20.97;;;;;;;;;;5082786;28;20942;-77
2023/09/15 01:47:54;;;;;;;26.27;19.00;;;;;;;;;;5075020;28;20458;-77
2023/09/15 01:50:21;;;;;;;26.37;18.67;;;;;;;;;;5067419;28;20471;-77
2023/09/15 01:52:48;;;;;;;29.83;19.53;;;;;;;;;;5075523;28;20570;-77
2023/09/15 01:55:16;;;;;;;29.73;20.40;;;;;;;;;;5094657;28;20459;-77
2023/09/15 01:57:43;;;;;;;28.10;20.47;;;;;;;;;;5080092;28;20447;-76
2023/09/15 02:00:11;;;;;;;31.33;21.37;;;;;;;;;;5074756;28;20495;-77
2023/09/15 02:02:38;;;;;;;31.10;19.90;;;;;;;;;;5075389;28;20462;-78
2023/09/15 02:05:07;;;;;;;30.30;21.53;;;;;;;;;;5076411;28;20463;-77
2023/09/15 02:07:35;;;;;;;32.20;21.83;;;;;;;;;;5089493;28;20472;-76
2023/09/15 02:10:03;;;;;;;28.53;20.50;;;;;;;;;;5074645;28;20481;-77
2023/09/15 02:12:30;;;;;;;30.83;20.90;;;;;;;;;;5083082;28;20570;-77
2023/09/15 02:14:57;;;;;;;33.53;20.60;;;;;;;;;;5074920;28;20452;-77
2023/09/15 02:17:25;;;;;;;28.70;21.00;;;;;;;;;;5082810;28;21041;-77
2023/09/15 02:19:52;;;;;;;31.90;21.43;;;;;;;;;;5074917;28;20842;-77
2023/09/15 02:22:20;;;;;;;37.63;20.87;;;;;;;;;;5074963;28;20451;-77
2023/09/15 02:24:47;;;;;;;29.57;22.13;;;;;;;;;;5074802;28;20468;-77
2023/09/15 02:27:15;;;;;;;30.93;20.37;;;;;;;;;;5082893;28;20463;-77
2023/09/15 02:29:42;;;;;;;35.23;21.00;;;;;;;;;;5075136;28;20468;-77
2023/09/15 02:32:09;;;;;;;30.63;23.27;;;;;;;;;;5074752;28;20475;-77
2023/09/15 02:34:36;;;;;;;31.40;23.20;;;;;;;;;;5080794;28;20501;-77
2023/09/15 02:37:03;;;;;;;36.17;22.90;;;;;;;;;;5078410;28;20447;-77
2023/09/15 02:39:32;;;;;;;32.90;21.77;;;;;;;;;;5094722;28;20512;-77
2023/09/15 02:42:00;;;;;;;34.43;23.17;;;;;;;;;;5085104;28;20464;-77
2023/09/15 02:44:27;;;;;;;32.37;22.13;;;;;;;;;;5082886;28;20451;-77
2023/09/15 02:46:54;;;;;;;36.63;23.37;;;;;;;;;;5074425;28;20448;-78
2023/09/15 02:49:21;;;;;;;34.40;23.20;;;;;;;;;;5073923;28;20842;-77
2023/09/15 02:51:48;;;;;;;41.00;23.63;;;;;;;;;;5083095;28;20452;-77
2023/09/15 02:54:15;;;;;;;34.20;22.50;;;;;;;;;;5085602;28;21025;-77
2023/09/15 02:56:44;;;;;;;37.83;25.63;;;;;;;;;;5087860;28;20451;-76
2023/09/15 02:59:11;;;;;;;37.00;25.17;;;;;;;;;;5074169;28;20447;-77
2023/09/15 03:01:38;;;;;;;32.93;22.27;;;;;;;;;;5074820;28;20455;-77
2023/09/15 03:04:05;;;;;;;36.10;23.67;;;;;;;;;;5076507;28;20510;-77
2023/09/15 03:06:33;;;;;;;27.43;20.30;;;;;;;;;;5080242;28;20483;-77
2023/09/15 03:09:00;;;;;;;30.83;21.57;;;;;;;;;;5083357;28;20457;-77
2023/09/15 03:11:27;;;;;;;37.80;21.80;;;;;;;;;;5077808;28;20478;-77
2023/09/15 03:13:55;;;;;;;36.23;21.57;;;;;;;;;;5077992;28;20488;-78
2023/09/15 03:16:23;;;;;;;28.90;20.50;;;;;;;;;;5090591;28;20549;-77
2023/09/15 03:18:50;;;;;;;28.33;19.17;;;;;;;;;;5082040;28;20870;-77
2023/09/15 03:21:17;;;;;;;25.23;18.97;;;;;;;;;;5085773;28;20464;-77
2023/09/15 03:23:45;;;;;;;29.13;20.20;;;;;;;;;;5077654;28;20452;-77
2023/09/15 03:26:13;;;;;;;29.50;20.73;;;;;;;;;;5080746;28;20466;-77
2023/09/15 03:28:40;;;;;;;26.97;21.17;;;;;;;;;;5083832;28;20525;-77
2023/09/15 03:31:09;;;;;;;27.90;20.10;;;;;;;;;;5076030;28;20474;-77
2023/09/15 03:33:36;;;;;;;26.50;18.70;;;;;;;;;;5082454;28;20490;-76
2023/09/15 03:36:03;;;;;;;28.27;20.60;;;;;;;;;;5095252;28;20961;-77
2023/09/15 03:38:30;;;;;;;31.83;20.47;;;;;;;;;;5076635;28;20455;-77
2023/09/15 03:40:59;;;;;;;25.50;17.73;;;;;;;;;;5076245;28;20480;-77
2023/09/15 03:43:26;;;;;;;27.43;18.57;;;;;;;;;;5075993;28;20452;-78
2023/09/15 03:45:54;;;;;;;33.47;19.43;;;;;;;;;;5076445;28;20527;-77
2023/09/15 03:48:22;;;;;;;27.10;21.07;;;;;;;;;;5067979;28;20522;-77
2023/09/15 03:50:50;;;;;;;30.40;19.70;;;;;;;;;;5075880;28;20842;-77
2023/09/15 03:53:17;;;;;;;29.83;19.87;;;;;;;;;;5076054;28;20861;-77
2023/09/15 03:55:44;;;;;;;31.33;21.13;;;;;;;;;;5082984;28;20461;-77
2023/09/15 03:58:11;;;;;;;23.90;18.67;;;;;;;;;;5077266;28;20447;-77
2023/09/15 04:00:38;;;;;;;29.00;19.70;;;;;;;;;;5075575;28;20471;-76
2023/09/15 04:03:05;;;;;;;30.63;20.20;;;;;;;;;;5075455;28;20451;-77
2023/09/15 04:05:34;;;;;;;26.00;18.57;;;;;;;;;;5075517;28;20466;-77
2023/09/15 04:08:01;;;;;;;26.20;17.70;;;;;;;;;;5075622;28;20452;-77
2023/09/15 04:10:29;;;;;;;29.73;17.90;;;;;;;;;;5075270;28;20567;-77
2023/09/15 04:12:56;;;;;;;26.70;19.20;;;;;;;;;;5075211;28;20542;-77
2023/09/15 04:15:23;;;;;;;23.07;18.70;;;;;;;;;;5088081;28;20462;-76
2023/09/15 04:17:50;;;;;;;28.87;18.00;;;;;;;;;;5079860;28;20833;-77
2023/09/15 04:20:17;;;;;;;23.60;16.50;;;;;;;;;;5078448;28;20935;-77
2023/09/15 04:22:46;;;;;;;24.67;17.37;;;;;;;;;;5080587;28;20448;-78
2023/09/15 04:25:13;;;;;;;27.80;17.80;;;;;;;;;;5092206;28;20451;-77
2023/09/15 04:27:40;;;;;;;23.33;17.00;;;;;;;;;;5076262;28;20456;-78
2023/09/15 04:30:08;;;;;;;22.80;17.60;;;;;;;;;;5074841;28;20982;-77
2023/09/15 04:32:35;;;;;;;27.47;19.30;;;;;;;;;;5075502;28;20520;-77
2023/09/15 04:35:02;;;;;;;26.77;21.60;;;;;;;;;;5083622;28;20491;-77
2023/09/15 04:37:31;;;;;;;24.03;17.87;;;;;;;;;;5084002;28;20475;-78
2023/09/15 04:40:00;;;;;;;23.57;17.57;;;;;;;;;;5075097;28;20487;-77
2023/09/15 04:42:28;;;;;;;23.13;16.97;;;;;;;;;;5075035;28;20460;-77
2023/09/15 04:44:55;;;;;;;26.03;18.30;;;;;;;;;;5075277;28;20919;-77
2023/09/15 04:47:30;;;;;;;19.43;15.03;;;;;;;;;;5082989;28;20444;-77
2023/09/15 04:49:57;;;;;;;19.47;15.83;;;;;;;;;;5075288;28;20485;-76
2023/09/15 04:52:24;;;;;;;18.30;14.53;;;;;;;;;;5090244;28;20456;-77
2023/09/15 04:54:52;;;;;;;22.67;15.70;;;;;;;;;;5073851;28;20479;-77
2023/09/15 04:57:21;;;;;;;23.33;16.87;;;;;;;;;;5066138;28;20469;-77
2023/09/15 04:59:48;;;;;;;21.03;15.53;;;;;;;;;;5082266;28;20997;-77
2023/09/15 05:02:15;;;;;;;21.77;16.30;;;;;;;;;;5073350;28;20475;-76
2023/09/15 05:04:43;;;;;;;20.07;14.57;;;;;;;;;;5073678;28;20446;-78
2023/09/15 05:07:10;;;;;;;20.83;14.53;;;;;;;;;;5089579;28;20518;-77
2023/09/15 05:09:37;;;;;;;26.63;15.80;;;;;;;;;;5072611;28;20482;-77
2023/09/15 05:12:04;;;;;;;24.97;15.47;;;;;;;;;;5082585;28;20454;-76
2023/09/15 05:14:33;;;;;;;17.13;13.77;;;;;;;;;;5088025;28;20488;-77
2023/09/15 05:17:00;;;;;;;22.83;13.70;;;;;;;;;;5082179;28;20460;-76
2023/09/15 05:19:27;;;;;;;15.10;11.50;;;;;;;;;;5079584;28;20459;-76
2023/09/15 05:21:54;;;;;;;17.13;13.50;;;;;;;;;;5072468;28;20538;-76
2023/09/15 05:24:21;;;;;;;14.70;12.00;;;;;;;;;;5080530;28;20456;-76
2023/09/15 05:26:49;;;;;;;13.60;10.83;;;;;;;;;;5072882;28;20447;-78
2023/09/15 05:29:16;;;;;;;17.23;12.27;;;;;;;;;;5075133;28;20552;-78
2023/09/15 05:31:44;;;;;;;15.60;11.03;;;;;;;;;;5076872;28;20456;-77
2023/09/15 05:34:11;;;;;;;16.20;11.00;;;;;;;;;;5074668;28;20526;-77
2023/09/15 05:36:38;;;;;;;13.80;11.47;;;;;;;;;;5092727;28;20807;-78
2023/09/15 05:39:05;;;;;;;15.07;10.53;;;;;;;;;;5075661;28;20462;-78
2023/09/15 05:41:33;;;;;;;11.40;8.77;;;;;;;;;;5088413;28;20467;-78
2023/09/15 05:44:00;;;;;;;11.07;9.13;;;;;;;;;;5081879;28;20457;-77
2023/09/15 05:46:27;;;;;;;13.13;10.73;;;;;;;;;;5072346;28;21176;-75
2023/09/15 05:48:56;;;;;;;16.20;11.27;;;;;;;;;;5071982;28;20466;-76
2023/09/15 05:51:23;;;;;;;10.13;8.47;;;;;;;;;;5080221;28;20570;-77
2023/09/15 05:53:51;;;;;;;12.43;10.67;;;;;;;;;;5080050;28;20490;-76
2023/09/15 05:56:18;;;;;;;14.13;11.20;;;;;;;;;;5075590;28;20554;-76
2023/09/15 05:58:46;;;;;;;17.17;9.50;;;;;;;;;;5077079;28;20972;-77
2023/09/15 06:01:13;;;;;;;14.80;8.63;;;;;;;;;;5088861;28;20459;-76
2023/09/15 06:03:40;;;;;;;12.83;9.77;;;;;;;;;;5078672;28;20450;-76
2023/09/15 06:06:08;;;;;;;10.43;8.97;;;;;;;;;;5073432;28;20490;-76
2023/09/15 06:08:35;;;;;;;12.40;8.87;;;;;;;;;;5071768;28;20780;-77
2023/09/15 06:11:03;;;;;;;9.70;8.70;;;;;;;;;;5071907;28;20474;-76
2023/09/15 06:13:30;;;;;;;8.03;7.17;;;;;;;;;;5085101;28;20458;-76
2023/09/15 06:15:57;;;;;;;9.83;8.93;;;;;;;;;;5091720;28;20454;-76
2023/09/15 06:18:24;;;;;;;11.77;9.20;;;;;;;;;;5071947;28;20478;-77
2023/09/15 06:20:55;;;;;;;9.93;8.47;;;;;;;;;;5079618;28;20477;-76
2023/09/15 06:23:24;;;;;;;12.63;8.07;;;;;;;;;;5088223;28;20474;-76
2023/09/15 06:25:51;;;;;;;14.47;9.17;;;;;;;;;;5072528;28;20448;-76
2023/09/15 06:28:18;;;;;;;9.90;8.50;;;;;;;;;;5081250;28;20816;-77
2023/09/15 06:30:45;;;;;;;10.67;9.20;;;;;;;;;;5073368;28;20472;-77
2023/09/15 06:33:12;;;;;;;8.63;7.70;;;;;;;;;;5073302;28;20474;-77
2023/09/15 06:35:39;;;;;;;9.13;7.60;;;;;;;;;;5080291;28;20491;-77
2023/09/15 06:38:06;;;;;;;8.00;7.30;;;;;;;;;;5081348;28;20487;-76
2023/09/15 06:40:35;;;;;;;12.73;7.93;;;;;;;;;;5071300;28;20464;-76
2023/09/15 06:43:04;;;;;;;9.40;6.93;;;;;;;;;;5072680;28;20467;-76
2023/09/15 06:45:32;;;;;;;10.07;6.90;;;;;;;;;;5075491;28;20534;-76
2023/09/15 06:48:00;;;;;;;9.57;6.27;;;;;;;;;;5075555;28;20451;-76
2023/09/15 06:50:27;;;;;;;10.20;7.70;;;;;;;;;;5075623;28;20828;-76
2023/09/15 06:52:54;;;;;;;7.87;7.07;;;;;;;;;;5076634;28;20447;-77
2023/09/15 06:55:21;;;;;;;7.80;7.00;;;;;;;;;;5076389;28;20491;-76
2023/09/15 06:57:51;;;;;;;6.80;6.10;;;;;;;;;;5077090;28;20458;-78
2023/09/15 07:00:19;;;;;;;7.13;5.40;;;;;;;;;;5075799;28;20529;-78
2023/09/15 07:02:46;;;;;;;6.70;6.00;;;;;;;;;;5084636;28;20463;-77
2023/09/15 07:05:13;;;;;;;7.53;5.70;;;;;;;;;;5075787;28;20584;-78
2023/09/15 07:07:40;;;;;;;7.80;6.70;;;;;;;;;;5084370;28;20841;-76
2023/09/15 07:10:08;;;;;;;7.40;6.70;;;;;;;;;;5085819;28;20477;-78
2023/09/15 07:12:35;;;;;;;7.30;6.50;;;;;;;;;;5090601;28;20459;-77
2023/09/15 07:15:04;;;;;;;7.83;5.80;;;;;;;;;;5084272;28;20861;-77
2023/09/15 07:17:32;;;;;;;6.40;5.80;;;;;;;;;;5076345;28;20460;-77
2023/09/15 07:19:59;;;;;;;6.07;5.47;;;;;;;;;;5075693;28;20586;-77
2023/09/15 07:22:27;;;;;;;6.60;5.80;;;;;;;;;;5076031;28;20459;-77
2023/09/15 07:24:54;;;;;;;7.80;6.50;;;;;;;;;;5084787;28;20538;-77
2023/09/15 07:27:21;;;;;;;7.50;6.80;;;;;;;;;;5076611;28;20455;-77
2023/09/15 07:29:48;;;;;;;9.33;7.13;;;;;;;;;;5076118;28;20529;-77
2023/09/15 07:32:17;;;;;;;8.40;7.40;;;;;;;;;;5075881;28;20487;-77
2023/09/15 07:34:44;;;;;;;7.60;6.77;;;;;;;;;;5083020;28;20482;-77
2023/09/15 07:37:12;;;;;;;7.20;6.37;;;;;;;;;;5080139;28;20479;-77
2023/09/15 07:39:39;;;;;;;6.40;5.40;;;;;;;;;;5082050;28;20525;-78
2023/09/15 07:42:08;;;;;;;6.87;5.93;;;;;;;;;;5078572;28;20907;-77
2023/09/15 07:44:36;;;;;;;6.97;6.27;;;;;;;;;;5081565;28;20460;-77
2023/09/15 07:47:04;;;;;;;11.43;6.97;;;;;;;;;;5093825;28;20458;-77
2023/09/15 07:49:32;;;;;;;13.60;7.57;;;;;;;;;;5082573;28;20938;-77
2023/09/15 07:51:59;;;;;;;9.00;6.47;;;;;;;;;;5076145;28;20458;-77
2023/09/15 07:54:28;;;;;;;6.13;5.53;;;;;;;;;;5079664;28;20494;-78
2023/09/15 07:56:55;;;;;;;6.77;6.07;;;;;;;;;;5079718;28;20601;-77
2023/09/15 07:59:22;;;;;;;6.10;5.50;;;;;;;;;;5080188;28;20454;-79
2023/09/15 08:01:51;;;;;;;6.50;5.90;;;;;;;;;;5081635;28;20459;-78
2023/09/15 08:04:18;;;;;;;6.17;5.60;;;;;;;;;;5091349;28;20505;-76
2023/09/15 08:06:47;;;;;;;5.90;5.10;;;;;;;;;;5074643;28;20486;-76
2023/09/15 08:09:15;;;;;;;5.97;5.00;;;;;;;;;;5082406;28;20506;-76
2023/09/15 08:11:42;;;;;;;6.87;6.20;;;;;;;;;;5074617;28;20476;-76
2023/09/15 08:14:09;;;;;;;15.20;5.27;;;;;;;;;;5074065;28;20452;-77
2023/09/15 08:16:37;;;;;;;5.53;5.10;;;;;;;;;;5082851;28;20459;-77
2023/09/15 08:19:04;;;;;;;5.67;5.17;;;;;;;;;;5084051;28;20901;-77
2023/09/15 08:21:31;;;;;;;6.63;5.93;;;;;;;;;;5081649;28;20472;-77
2023/09/15 08:23:59;;;;;;;5.67;4.90;;;;;;;;;;5076479;28;20452;-78
2023/09/15 08:26:27;;;;;;;5.83;4.97;;;;;;;;;;5075849;28;20463;-79
2023/09/15 08:28:54;;;;;;;5.87;5.33;;;;;;;;;;5075927;28;20530;-77
2023/09/15 08:31:21;;;;;;;7.60;6.20;;;;;;;;;;5067141;28;20476;-77
2023/09/15 08:33:48;;;;;;;8.10;5.73;;;;;;;;;;5075323;28;20984;-78
2023/09/15 08:36:15;;;;;;;7.07;6.03;;;;;;;;;;5074707;28;20491;-78
2023/09/15 08:38:42;;;;;;;5.37;4.87;;;;;;;;;;5081440;28;20455;-78
2023/09/15 08:41:13;;;;;;;6.03;4.97;;;;;;;;;;5078369;28;20472;-78
2023/09/15 08:43:41;;;;;;;8.13;5.70;;;;;;;;;;5091995;28;20466;-78
2023/09/15 08:46:09;;;;;;;5.87;5.27;;;;;;;;;;5082684;28;20455;-78
2023/09/15 08:48:40;;;;;;;8.20;5.83;;;;;;;;;;5081337;28;20452;-78
2023/09/15 08:51:07;;;;;;;5.07;4.63;;;;;;;;;;5085275;28;20965;-78
2023/09/15 08:53:36;;;;;;;8.97;6.10;;;;;;;;;;5082926;28;20457;-78
2023/09/15 08:56:04;;;;;;;6.07;5.43;;;;;;;;;;5083872;28;20546;-77
2023/09/15 08:58:32;;;;;;;7.63;6.07;;;;;;;;;;5080683;28;20626;-78
2023/09/15 09:01:01;;;;;;;6.53;6.03;;;;;;;;;;5085763;28;20474;-78
2023/09/15 09:03:28;;;;;;;6.90;6.20;;;;;;;;;;5079723;28;20465;-77
2023/09/15 09:05:55;;;;;;;7.63;6.00;;;;;;;;;;5085681;28;20457;-78
2023/09/15 09:08:24;;;;;;;6.33;5.23;;;;;;;;;;5082730;28;20456;-77
2023/09/15 09:10:51;;;;;;;7.00;5.83;;;;;;;;;;5091424;28;20973;-78
2023/09/15 09:13:22;;;;;;;6.73;5.30;;;;;;;;;;5087005;28;20443;-78
2023/09/15 09:15:51;;;;;;;7.27;6.57;;;;;;;;;;5087655;28;20478;-78
2023/09/15 09:18:19;;;;;;;7.07;5.30;;;;;;;;;;5083719;28;20463;-78
2023/09/15 09:20:49;;;;;;;6.23;5.63;;;;;;;;;;5082349;28;20475;-78
2023/09/15 09:23:17;;;;;;;7.20;5.50;;;;;;;;;;5083156;28;20461;-78
2023/09/15 09:25:45;;;;;;;6.20;5.63;;;;;;;;;;5080978;28;20446;-78
2023/09/15 09:28:12;;;;;;;7.43;5.87;;;;;;;;;;5080698;28;20521;-77
2023/09/15 09:30:39;;;;;;;9.63;5.87;;;;;;;;;;5070327;28;20555;-77
2023/09/15 09:33:08;;;;;;;8.70;6.80;;;;;;;;;;5085202;28;20467;-78
2023/09/15 09:35:36;;;;;;;6.10;5.50;;;;;;;;;;5088034;28;20487;-77
2023/09/15 09:38:03;;;;;;;7.27;6.57;;;;;;;;;;5077287;28;20462;-77
2023/09/15 09:40:31;;;;;;;7.33;6.00;;;;;;;;;;5084908;28;20500;-77
2023/09/15 09:42:58;;;;;;;5.50;5.00;;;;;;;;;;5082628;28;20491;-78
2023/09/15 09:45:30;;;;;;;7.87;6.00;;;;;;;;;;5078466;28;20479;-77
2023/09/15 09:47:57;;;;;;;7.67;5.77;;;;;;;;;;5077750;28;20957;-77
2023/09/15 09:50:26;;;;;;;10.60;5.37;;;;;;;;;;5071817;28;20834;-77
2023/09/15 09:52:53;;;;;;;8.33;5.63;;;;;;;;;;5085149;28;20462;-77
2023/09/15 09:55:21;;;;;;;6.60;5.83;;;;;;;;;;5088827;28;20487;-76
2023/09/15 09:57:48;;;;;;;6.10;5.50;;;;;;;;;;5080780;28;20822;-76
2023/09/15 10:00:18;;;;;;;8.20;6.10;;;;;;;;;;5087705;28;20965;-77
2023/09/15 10:02:46;;;;;;;6.50;5.90;;;;;;;;;;5078671;28;20801;-77
2023/09/15 10:05:13;;;;;;;7.10;5.63;;;;;;;;;;5076049;28;20456;-76
2023/09/15 10:07:41;;;;;;;5.90;5.40;;;;;;;;;;5085558;28;20534;-76
2023/09/15 10:10:09;;;;;;;5.87;5.37;;;;;;;;;;5087581;28;20475;-76
2023/09/15 10:12:37;;;;;;;5.13;4.50;;;;;;;;;;5070667;28;20495;-76
2023/09/15 10:15:06;;;;;;;6.03;5.53;;;;;;;;;;5070834;28;20870;-77
2023/09/15 10:17:33;;;;;;;5.90;4.63;;;;;;;;;;5070941;28;20550;-76
2023/09/15 10:20:02;;;;;;;5.70;5.20;;;;;;;;;;5071562;28;20475;-76
2023/09/15 10:22:29;;;;;;;5.47;4.97;;;;;;;;;;5071915;28;20558;-76
2023/09/15 10:25:00;;;;;;;5.50;5.00;;;;;;;;;;5071664;28;20448;-76
2023/09/15 10:27:29;;;;;;;6.83;4.77;;;;;;;;;;5071571;28;20490;-76
2023/09/15 10:29:56;;;;;;;6.33;5.83;;;;;;;;;;5073350;28;20982;-76
2023/09/15 10:32:23;;;;;;;5.57;4.80;;;;;;;;;;5071418;28;20459;-76
2023/09/15 10:34:51;;;;;;;5.40;4.90;;;;;;;;;;5067581;28;20918;-76
2023/09/15 10:37:18;;;;;;;5.03;4.53;;;;;;;;;;5074245;28;20462;-77
2023/09/15 10:39:46;;;;;;;4.77;4.37;;;;;;;;;;5071663;28;20472;-76
2023/09/15 10:42:15;;;;;;;6.20;5.60;;;;;;;;;;5076257;28;20459;-76
2023/09/15 10:44:42;;;;;;;5.67;4.90;;;;;;;;;;5071691;28;20436;-76
2023/09/15 10:47:16;;;;;;;5.63;5.13;;;;;;;;;;5074988;28;20478;-76
2023/09/15 10:49:51;;;;;;;7.23;5.17;;;;;;;;;;5071282;28;20471;-76
2023/09/15 10:52:18;;;;;;;5.80;5.30;;;;;;;;;;5071345;28;20457;-77
2023/09/15 10:54:45;;;;;;;4.63;3.70;;;;;;;;;;5078679;28;20798;-76
2023/09/15 10:57:12;;;;;;;7.47;4.83;;;;;;;;;;5071894;28;21027;-77
2023/09/15 10:59:41;;;;;;;7.07;5.47;;;;;;;;;;5071029;28;20483;-76
2023/09/15 11:02:10;;;;;;;4.90;4.50;;;;;;;;;;5071227;28;21030;-76
2023/09/15 11:04:38;;;;;;;5.00;3.77;;;;;;;;;;5074771;28;20462;-76
2023/09/15 11:07:07;;;;;;;9.63;5.10;;;;;;;;;;5070965;28;20820;-76
2023/09/15 11:09:35;;;;;;;5.57;5.07;;;;;;;;;;5071083;28;20525;-76
2023/09/15 11:12:03;;;;;;;5.27;4.77;;;;;;;;;;5070929;28;20501;-76
2023/09/15 11:14:30;;;;;;;5.30;4.20;;;;;;;;;;5071246;28;20876;-76
2023/09/15 11:16:58;;;;;;;4.70;4.20;;;;;;;;;;5071214;28;20553;-76
2023/09/15 11:19:30;;;;;;;5.47;5.07;;;;;;;;;;5071026;28;20577;-76
2023/09/15 11:21:57;;;;;;;5.70;5.20;;;;;;;;;;5071353;28;20554;-76
2023/09/15 11:24:24;;;;;;;4.70;4.30;;;;;;;;;;5082501;28;20462;-77
2023/09/15 11:26:52;;;;;;;5.60;5.00;;;;;;;;;;5071857;28;20450;-76
2023/09/15 11:29:25;;;;;;;5.37;4.90;;;;;;;;;;5073897;28;20453;-75
2023/09/15 11:31:52;;;;;;;6.83;5.27;;;;;;;;;;5071324;28;20956;-76
2023/09/15 11:34:21;;;;;;;6.53;5.93;;;;;;;;;;5068705;28;20808;-76
2023/09/15 11:36:49;;;;;;;6.07;5.27;;;;;;;;;;5074178;28;20591;-76
2023/09/15 11:39:16;;;;;;;7.33;5.10;;;;;;;;;;5073646;28;20467;-76
2023/09/15 11:41:51;;;;;;;8.63;5.47;;;;;;;;;;5080531;28;20459;-76
2023/09/15 11:44:18;;;;;;;5.50;5.00;;;;;;;;;;5074292;28;20833;-76
2023/09/15 11:46:46;;;;;;;5.33;4.83;;;;;;;;;;5081489;28;20826;-76
2023/09/15 11:49:13;;;;;;;6.37;5.77;;;;;;;;;;5081501;28;20455;-77
2023/09/15 11:51:42;;;;;;;6.00;5.50;;;;;;;;;;5073940;28;20448;-77
2023/09/15 11:54:09;;;;;;;8.47;6.73;;;;;;;;;;5073984;28;20443;-76
2023/09/15 11:56:37;;;;;;;6.37;5.37;;;;;;;;;;5076499;28;21027;-76
2023/09/15 11:59:04;;;;;;;6.20;5.07;;;;;;;;;;5078258;28;20960;-76
2023/09/15 12:01:31;;;;;;;6.60;5.53;;;;;;;;;;5073874;28;20466;-76
2023/09/15 12:03:59;;;;;;;6.87;6.23;;;;;;;;;;5073711;28;20448;-76
2023/09/15 12:06:26;;;;;;;8.43;7.03;;;;;;;;;;5073644;28;20537;-76
2023/09/15 12:08:55;;;;;;;5.13;4.73;;;;;;;;;;5073977;28;20629;-75
2023/09/15 12:11:22;;;;;;;5.33;4.83;;;;;;;;;;5074890;28;20541;-76
2023/09/15 12:13:52;;;;;;;6.67;6.07;;;;;;;;;;5082133;28;20444;-75
2023/09/15 12:16:19;;;;;;;6.73;6.03;;;;;;;;;;5073594;28;20479;-75
2023/09/15 12:18:47;;;;;;;6.00;5.43;;;;;;;;;;5081301;28;20459;-75
2023/09/15 12:21:15;;;;;;;6.87;5.80;;;;;;;;;;5083537;28;20482;-76
2023/09/15 12:23:42;;;;;;;5.70;5.20;;;;;;;;;;5073745;28;20480;-76
2023/09/15 12:26:12;;;;;;;6.40;5.90;;;;;;;;;;5081599;28;20450;-75
2023/09/15 12:28:39;;;;;;;5.47;4.97;;;;;;;;;;5073205;28;20672;-76
2023/09/15 12:31:06;;;;;;;11.40;6.50;;;;;;;;;;5075873;28;20486;-76
2023/09/15 12:33:33;;;;;;;6.23;5.63;;;;;;;;;;5073174;28;20487;-75
2023/09/15 12:36:05;;;;;;;6.63;6.03;;;;;;;;;;5072764;28;20594;-76
2023/09/15 12:38:32;;;;;;;5.90;5.40;;;;;;;;;;5077015;28;20455;-75
2023/09/15 12:40:59;;;;;;;9.43;6.03;;;;;;;;;;5072753;28;20460;-75
2023/09/15 12:43:28;;;;;;;8.63;5.83;;;;;;;;;;5073231;28;20447;-76
2023/09/15 12:45:55;;;;;;;8.07;6.90;;;;;;;;;;5081186;28;20448;-76
2023/09/15 12:48:22;;;;;;;7.70;6.70;;;;;;;;;;5076568;28;20447;-75
2023/09/15 12:50:50;;;;;;;10.67;7.00;;;;;;;;;;5075795;28;20849;-75
2023/09/15 12:53:17;;;;;;;6.93;6.33;;;;;;;;;;5081055;28;20490;-75
2023/09/15 12:55:44;;;;;;;10.67;6.43;;;;;;;;;;5075192;28;20470;-75
2023/09/15 12:58:11;;;;;;;7.57;6.80;;;;;;;;;;5074335;28;20489;-77
2023/09/15 13:00:40;;;;;;;8.63;6.33;;;;;;;;;;5086083;28;20475;-77
2023/09/15 13:03:07;;;;;;;10.13;6.33;;;;;;;;;;5076018;28;20448;-79
2023/09/15 13:05:34;;;;;;;10.67;6.30;;;;;;;;;;5076590;28;20452;-78
2023/09/15 13:08:01;;;;;;;13.57;6.70;;;;;;;;;;5084663;28;20443;-78
2023/09/15 13:10:28;;;;;;;10.63;6.60;;;;;;;;;;5076552;28;20467;-77
2023/09/15 13:12:56;;;;;;;8.00;6.13;;;;;;;;;;5080045;28;20555;-77
2023/09/15 13:15:23;;;;;;;6.40;5.90;;;;;;;;;;5076197;28;20448;-77
2023/09/15 13:17:52;;;;;;;6.57;4.80;;;;;;;;;;5074705;28;20487;-77
2023/09/15 13:20:19;;;;;;;6.30;5.70;;;;;;;;;;5076210;28;20511;-78
2023/09/15 13:22:46;;;;;;;5.87;5.13;;;;;;;;;;5075495;28;20448;-77
2023/09/15 13:25:14;;;;;;;5.67;5.17;;;;;;;;;;5086169;28;20470;-77
2023/09/15 13:27:42;;;;;;;6.60;5.53;;;;;;;;;;5075382;28;21006;-77
2023/09/15 13:30:10;;;;;;;7.13;5.70;;;;;;;;;;5075985;28;20467;-78
2023/09/15 13:32:37;;;;;;;6.63;6.00;;;;;;;;;;5083949;28;20459;-77
2023/09/15 13:35:07;;;;;;;6.70;5.23;;;;;;;;;;5074945;28;20449;-77
2023/09/15 13:37:34;;;;;;;5.87;5.27;;;;;;;;;;5075752;28;20489;-77
2023/09/15 13:40:01;;;;;;;9.47;4.80;;;;;;;;;;5073727;28;20852;-77
2023/09/15 13:42:32;;;;;;;6.23;5.63;;;;;;;;;;5076356;28;20448;-77
2023/09/15 13:44:59;;;;;;;4.57;4.17;;;;;;;;;;5074578;28;20454;-78
2023/09/15 13:47:27;;;;;;;5.17;4.67;;;;;;;;;;5074963;28;20914;-78
2023/09/15 13:49:54;;;;;;;9.93;4.40;;;;;;;;;;5083412;28;21056;-78
2023/09/15 13:52:23;;;;;;;5.03;4.60;;;;;;;;;;5080972;28;20446;-78
2023/09/15 13:54:51;;;;;;;4.50;4.10;;;;;;;;;;5083411;28;20496;-77
2023/09/15 13:57:18;;;;;;;5.63;4.33;;;;;;;;;;5072953;28;20483;-77
2023/09/15 13:59:45;;;;;;;5.33;4.67;;;;;;;;;;5079637;28;20467;-77
2023/09/15 14:02:12;;;;;;;5.70;3.60;;;;;;;;;;5073602;28;20450;-77
2023/09/15 14:04:40;;;;;;;4.83;4.40;;;;;;;;;;5072269;28;20455;-77
2023/09/15 14:07:07;;;;;;;5.30;4.80;;;;;;;;;;5072479;28;20448;-77
2023/09/15 14:09:36;;;;;;;5.17;4.67;;;;;;;;;;5072382;28;20490;-77
2023/09/15 14:12:03;;;;;;;4.87;4.37;;;;;;;;;;5071627;28;20862;-77
2023/09/15 14:14:30;;;;;;;4.57;4.17;;;;;;;;;;5078420;28;20451;-77
2023/09/15 14:16:58;;;;;;;5.67;4.60;;;;;;;;;;5072414;28;20498;-76
2023/09/15 14:19:25;;;;;;;4.40;4.00;;;;;;;;;;5076939;28;20471;-77
2023/09/15 14:21:52;;;;;;;6.70;4.23;;;;;;;;;;5081644;28;20473;-76
2023/09/15 14:24:20;;;;;;;9.97;4.20;;;;;;;;;;5073681;28;20462;-77
2023/09/15 14:26:48;;;;;;;6.17;4.40;;;;;;;;;;5072259;28;20454;-76
2023/09/15 14:29:15;;;;;;;4.40;4.10;;;;;;;;;;5080573;28;20464;-77
2023/09/15 14:31:42;;;;;;;4.93;4.37;;;;;;;;;;5071854;28;20459;-77
2023/09/15 14:34:11;;;;;;;4.73;3.70;;;;;;;;;;5081710;28;20452;-78